createdAt,value
2019-04-12T00:01:03.570Z,4.72
2019-04-12T00:03:34.477Z,5.05
2019-04-12T00:06:05.105Z,5.20
2019-04-12T00:08:35.448Z,5.78
2019-04-12T00:11:05.983Z,5.87
2019-04-12T00:13:36.593Z,5.60
2019-04-12T00:16:07.252Z,5.03
2019-04-12T00:18:37.587Z,5.42
2019-04-12T00:21:08.302Z,5.40
2019-04-12T00:23:38.651Z,6.03
2019-04-12T00:26:09.005Z,5.30
2019-04-12T00:28:39.365Z,5.17
2019-04-12T00:31:09.682Z,5.37
2019-04-12T00:33:40.064Z,5.58
2019-04-12T00:36:10.391Z,5.33
2019-04-12T00:38:40.751Z,5.47
2019-04-12T00:41:11.536Z,5.35
2019-04-12T00:43:42.557Z,5.30
2019-04-12T00:46:12.907Z,5.12
2019-04-12T00:48:43.576Z,5.47
2019-04-12T00:51:14.213Z,5.25
2019-04-12T00:53:45.508Z,6.28
2019-04-12T00:56:17.167Z,5.08
2019-04-12T00:58:47.595Z,5.50
2019-04-12T01:01:22.223Z,5.30
2019-04-12T01:03:58.195Z,5.00
2019-04-12T01:06:28.542Z,5.05
2019-04-12T01:08:58.866Z,5.17
2019-04-12T01:11:29.229Z,5.17
2019-04-12T01:13:59.550Z,5.67
2019-04-12T01:16:30.981Z,4.90
2019-04-12T01:19:02.668Z,4.62
2019-04-12T01:21:37.126Z,5.00
2019-04-12T01:24:08.166Z,5.45
2019-04-12T01:26:38.909Z,5.20
2019-04-12T01:29:09.549Z,5.60
2019-04-12T01:31:39.905Z,5.25
2019-04-12T01:34:10.286Z,5.92
2019-04-12T01:36:40.634Z,5.10
2019-04-12T01:39:11.437Z,5.12
2019-04-12T01:41:42.111Z,5.08
2019-04-12T01:44:12.461Z,5.45
2019-04-12T01:46:43.350Z,5.55
2019-04-12T01:49:14.003Z,5.70
2019-04-12T01:51:44.665Z,5.05
2019-04-12T01:54:15.582Z,5.42
2019-04-12T01:56:46.527Z,6.00
2019-04-12T01:59:17.159Z,5.03
2019-04-12T02:01:48.179Z,5.03
2019-04-12T02:04:18.622Z,5.47
2019-04-12T02:06:48.965Z,5.72
2019-04-12T02:09:19.314Z,4.92
2019-04-12T02:11:49.664Z,4.53
2019-04-12T02:14:20.372Z,4.70
2019-04-12T02:16:51.073Z,5.42
2019-04-12T02:19:21.494Z,4.12
2019-04-12T02:21:52.137Z,4.78
2019-04-12T02:24:22.463Z,4.83
2019-04-12T02:26:52.987Z,5.22
2019-04-12T02:29:23.367Z,5.35
2019-04-12T02:32:07.617Z,5.00
2019-04-12T02:34:37.944Z,4.65
2019-04-12T02:37:08.653Z,5.50
2019-04-12T02:39:39.660Z,4.92
2019-04-12T02:42:10.005Z,5.30
2019-04-12T02:44:40.662Z,4.85
2019-04-12T02:47:28.854Z,5.08
2019-04-12T02:50:09.391Z,5.33
2019-04-12T02:52:56.918Z,5.75
2019-04-12T02:55:37.830Z,4.75
2019-04-12T03:00:43.773Z,5.45
2019-04-12T03:03:14.481Z,4.45
2019-04-12T03:05:45.194Z,4.92
2019-04-12T03:08:16.759Z,4.60
2019-04-12T03:10:47.081Z,4.33
2019-04-12T03:13:17.768Z,4.47
2019-04-12T03:15:48.527Z,4.35
2019-04-12T03:18:19.202Z,4.60
2019-04-12T03:20:49.617Z,5.33
2019-04-12T03:23:20.533Z,4.00
2019-04-12T03:25:54.064Z,5.10
2019-04-12T03:28:23.569Z,5.25
2019-04-12T03:30:54.639Z,4.92
2019-04-12T03:33:24.962Z,4.50
2019-04-12T03:35:55.574Z,4.25
2019-04-12T03:38:26.283Z,4.50
2019-04-12T03:40:56.940Z,4.75
2019-04-12T03:43:27.596Z,4.60
2019-04-12T03:45:57.980Z,4.67
2019-04-12T03:48:28.377Z,4.53
2019-04-12T03:50:59.285Z,4.75
2019-04-12T03:53:29.654Z,4.12
2019-04-12T03:56:07.826Z,4.40
2019-04-12T03:58:32.449Z,4.70
2019-04-12T04:01:03.655Z,5.00
2019-04-12T04:03:33.974Z,4.70
2019-04-12T04:06:04.384Z,4.35
2019-04-12T04:08:34.851Z,4.00
2019-04-12T04:11:05.195Z,4.50
2019-04-12T04:13:35.627Z,4.58
2019-04-12T04:16:07.985Z,4.15
2019-04-12T04:18:40.277Z,5.10
2019-04-12T04:21:17.776Z,4.47
2019-04-12T04:24:08.228Z,4.50
2019-04-12T04:26:56.830Z,5.42
2019-04-12T04:29:35.199Z,4.08
2019-04-12T04:32:13.717Z,4.83
2019-04-12T04:34:44.347Z,5.05
2019-04-12T04:37:14.682Z,5.17
2019-04-12T04:39:45.454Z,4.42
2019-04-12T04:42:16.017Z,4.08
2019-04-12T04:44:46.333Z,4.47
2019-04-12T04:47:17.629Z,4.15
2019-04-12T04:49:47.948Z,4.37
2019-04-12T04:52:18.293Z,4.47
2019-04-12T04:54:48.800Z,4.40
2019-04-12T04:57:19.177Z,4.42
2019-04-12T04:59:49.491Z,4.58
2019-04-12T05:02:19.990Z,4.45
2019-04-12T05:04:50.340Z,5.03
2019-04-12T05:07:20.689Z,3.95
2019-04-12T05:09:51.398Z,3.92
2019-04-12T05:12:21.752Z,4.30
2019-04-12T05:14:53.179Z,4.92
2019-04-12T05:17:23.561Z,4.75
2019-04-12T05:19:54.425Z,4.83
2019-04-12T05:22:24.773Z,3.60
2019-04-12T05:24:55.509Z,4.33
2019-04-12T05:27:25.855Z,3.42
2019-04-12T05:29:56.172Z,4.30
2019-04-12T05:32:26.755Z,3.37
2019-04-12T05:34:57.511Z,4.42
2019-04-12T05:37:28.090Z,4.08
2019-04-12T05:39:58.462Z,3.87
2019-04-12T05:42:28.780Z,4.25
2019-04-12T05:44:59.480Z,3.92
2019-04-12T05:47:34.221Z,4.47
2019-04-12T05:50:16.614Z,3.90
2019-04-12T05:52:47.221Z,3.30
2019-04-12T05:55:18.132Z,3.70
2019-04-12T05:57:50.443Z,4.30
2019-04-12T06:00:22.718Z,3.70
2019-04-12T06:02:57.813Z,4.15
2019-04-12T06:05:25.098Z,3.83
2019-04-12T06:07:56.011Z,3.67
2019-04-12T06:10:26.335Z,3.70
2019-04-12T06:12:56.682Z,3.80
2019-04-12T06:15:27.033Z,3.90
2019-04-12T06:17:58.059Z,4.70
2019-04-12T06:20:30.032Z,4.80
2019-04-12T06:23:01.028Z,4.08
2019-04-12T06:25:38.889Z,4.40
2019-04-12T06:28:10.229Z,4.28
2019-04-12T06:30:48.756Z,3.60
2019-04-12T06:33:19.482Z,3.72
2019-04-12T06:35:49.877Z,3.62
2019-04-12T06:38:20.536Z,3.55
2019-04-12T06:40:50.884Z,3.92
2019-04-12T06:43:21.670Z,3.75
2019-04-12T06:45:52.476Z,3.58
2019-04-12T06:48:23.171Z,3.37
2019-04-12T06:50:55.154Z,4.22
2019-04-12T06:53:26.202Z,4.20
2019-04-12T06:56:01.122Z,3.25
2019-04-12T06:58:31.774Z,2.77
2019-04-12T07:01:08.103Z,2.92
2019-04-12T07:03:56.254Z,3.37
2019-04-12T07:06:18.016Z,3.60
2019-04-12T07:08:48.359Z,4.12
2019-04-12T07:11:18.739Z,3.90
2019-04-12T07:13:49.078Z,3.50
2019-04-12T07:16:20.058Z,4.00
2019-04-12T07:18:50.756Z,3.47
2019-04-12T07:21:21.206Z,3.37
2019-04-12T07:23:51.929Z,3.35
2019-04-12T07:26:22.725Z,3.45
2019-04-12T07:28:53.073Z,3.45
2019-04-12T07:31:23.826Z,3.40
2019-04-12T07:33:54.443Z,3.15
2019-04-12T07:36:25.056Z,3.62
2019-04-12T07:38:55.804Z,3.00
2019-04-12T07:41:26.789Z,2.83
2019-04-12T07:43:57.127Z,3.10
2019-04-12T07:46:27.824Z,3.08
2019-04-12T07:48:58.223Z,3.65
2019-04-12T07:51:39.026Z,3.45
2019-04-12T07:54:19.997Z,3.27
2019-04-12T07:56:51.057Z,3.67
2019-04-12T07:59:23.421Z,2.92
2019-04-12T08:02:11.372Z,3.17
2019-04-12T08:04:50.027Z,3.30
2019-04-12T08:07:22.362Z,2.75
2019-04-12T08:09:52.707Z,2.85
2019-04-12T08:12:23.739Z,3.30
2019-04-12T08:14:54.115Z,3.05
2019-04-12T08:17:24.523Z,4.05
2019-04-12T08:19:55.339Z,2.90
2019-04-12T08:22:26.000Z,3.10
2019-04-12T08:24:56.403Z,3.00
2019-04-12T08:27:27.181Z,2.60
2019-04-12T08:29:57.547Z,2.65
2019-04-12T08:32:27.896Z,3.30
2019-04-12T08:34:58.241Z,3.50
2019-04-12T08:37:28.912Z,5.08
2019-04-12T08:39:59.561Z,11.35
2019-04-12T08:42:30.216Z,3.17
2019-04-12T08:45:00.933Z,4.30
2019-04-12T08:47:31.328Z,5.40
2019-04-12T08:50:02.138Z,6.42
2019-04-12T08:52:32.530Z,2.67
2019-04-12T08:55:03.610Z,2.65
2019-04-12T08:57:34.038Z,2.60
2019-04-12T09:00:06.480Z,2.65
2019-04-12T09:02:36.903Z,3.98
2019-04-12T09:05:07.962Z,2.72
2019-04-12T09:07:38.429Z,3.70
2019-04-12T09:10:08.979Z,3.60
2019-04-12T09:12:39.378Z,2.90
2019-04-12T09:15:10.658Z,3.15
2019-04-12T09:17:41.292Z,2.58
2019-04-12T09:20:28.681Z,2.55
2019-04-12T09:23:07.180Z,2.30
2019-04-12T09:25:39.604Z,2.55
2019-04-12T09:28:11.492Z,1.57
2019-04-12T09:30:43.675Z,2.15
2019-04-12T09:33:13.983Z,2.55
2019-04-12T09:35:46.936Z,2.35
2019-04-12T09:38:16.376Z,1.90
2019-04-12T09:40:47.212Z,2.10
2019-04-12T09:43:18.247Z,2.00
2019-04-12T09:45:48.923Z,2.27
2019-04-12T09:48:19.289Z,2.83
2019-04-12T09:50:49.634Z,3.22
2019-04-12T09:53:20.327Z,3.20
2019-04-12T09:55:51.755Z,3.35
2019-04-12T09:58:22.098Z,3.08
2019-04-12T10:00:52.478Z,2.65
2019-04-12T10:03:23.257Z,2.70
2019-04-12T10:05:53.607Z,3.08
2019-04-12T10:08:27.070Z,2.35
2019-04-12T10:10:56.536Z,3.30
2019-04-12T10:13:28.034Z,3.50
2019-04-12T10:15:58.452Z,3.30
2019-04-12T10:18:28.865Z,3.35
2019-04-12T10:20:59.189Z,3.37
2019-04-12T10:23:29.608Z,3.62
2019-04-12T10:26:00.588Z,3.33
2019-04-12T10:28:30.982Z,2.75
2019-04-12T10:31:01.548Z,4.42
2019-04-12T10:33:32.181Z,4.37
2019-04-12T10:36:02.536Z,3.60
2019-04-12T10:38:34.630Z,6.20
2019-04-12T10:41:05.333Z,3.60
2019-04-12T10:43:36.373Z,3.20
2019-04-12T10:46:08.649Z,3.95
2019-04-12T10:48:46.987Z,4.22
2019-04-12T10:51:18.976Z,4.60
2019-04-12T10:53:50.967Z,2.90
2019-04-12T10:56:21.476Z,3.00
2019-04-12T10:59:02.357Z,3.72
2019-04-12T11:01:25.867Z,3.05
2019-04-12T11:03:56.238Z,3.30
2019-04-12T11:06:30.567Z,3.62
2019-04-12T11:08:59.091Z,4.15
2019-04-12T11:11:29.905Z,3.27
2019-04-12T11:14:00.238Z,3.95
2019-04-12T11:16:30.590Z,4.15
2019-04-12T11:19:00.967Z,3.90
2019-04-12T11:21:31.698Z,3.92
2019-04-12T11:24:02.516Z,4.20
2019-04-12T11:26:33.500Z,3.85
2019-04-12T11:29:16.405Z,3.15
2019-04-12T11:31:36.132Z,4.08
2019-04-12T11:34:07.624Z,4.58
2019-04-12T11:36:38.025Z,5.20
2019-04-12T11:39:08.407Z,4.10
2019-04-12T11:41:38.766Z,3.37
2019-04-12T11:44:09.108Z,5.20
2019-04-12T11:46:40.398Z,4.53
2019-04-12T11:49:10.787Z,5.28
2019-04-12T11:51:41.391Z,4.90
2019-04-12T11:54:12.050Z,6.00
2019-04-12T11:56:43.223Z,4.97
2019-04-12T11:59:13.606Z,4.17
2019-04-12T12:01:46.011Z,4.42
2019-04-12T12:04:30.855Z,4.65
2019-04-12T12:07:03.858Z,5.37
2019-04-12T12:09:35.913Z,8.63
2019-04-12T12:12:14.354Z,5.60
2019-04-12T12:14:49.217Z,5.62
2019-04-12T12:17:27.683Z,4.83
2019-04-12T12:19:58.036Z,5.10
2019-04-12T12:22:28.386Z,4.58
2019-04-12T12:24:58.754Z,5.60
2019-04-12T12:27:29.452Z,5.75
2019-04-12T12:29:59.834Z,6.92
2019-04-12T12:32:30.722Z,6.05
2019-04-12T12:35:01.132Z,5.50
2019-04-12T12:37:31.482Z,6.40
2019-04-12T12:40:02.213Z,6.50
2019-04-12T12:42:32.934Z,5.85
2019-04-12T12:45:05.175Z,5.60
2019-04-12T12:47:35.694Z,5.62
2019-04-12T12:50:07.583Z,5.65
2019-04-12T12:52:37.906Z,5.42
2019-04-12T12:55:08.512Z,6.08
2019-04-12T12:57:38.875Z,5.65
2019-04-12T13:00:09.570Z,5.83
2019-04-12T13:02:39.955Z,6.05
2019-04-12T13:05:10.632Z,5.67
2019-04-12T13:07:40.960Z,6.03
2019-04-12T13:10:11.419Z,6.30
2019-04-12T13:12:42.534Z,6.20
2019-04-12T13:15:12.884Z,6.00
2019-04-12T13:17:43.657Z,6.55
2019-04-12T13:20:14.402Z,5.62
2019-04-12T13:22:45.218Z,7.10
2019-04-12T13:25:16.908Z,6.67
2019-04-12T13:27:47.389Z,5.95
2019-04-12T13:30:31.714Z,6.20
2019-04-12T13:33:04.439Z,6.70
2019-04-12T13:35:46.015Z,6.50
2019-04-12T13:38:42.128Z,6.62
2019-04-12T13:41:12.851Z,7.00
2019-04-12T13:43:43.931Z,6.65
2019-04-12T13:46:14.563Z,8.93
2019-04-12T13:48:45.327Z,6.12
2019-04-12T13:51:16.224Z,7.22
2019-04-12T13:53:47.905Z,6.75
2019-04-12T13:56:18.563Z,6.53
2019-04-12T13:58:48.917Z,6.70
2019-04-12T14:01:19.286Z,5.83
2019-04-12T14:03:49.681Z,6.35
2019-04-12T14:06:20.785Z,6.58
2019-04-12T14:08:51.104Z,6.20
2019-04-12T14:11:22.200Z,7.30
2019-04-12T14:13:52.602Z,6.83
2019-04-12T14:16:22.970Z,6.92
2019-04-12T14:18:53.709Z,6.33
2019-04-12T14:21:24.062Z,6.87
2019-04-12T14:23:54.762Z,5.95
2019-04-12T14:26:26.138Z,6.05
2019-04-12T14:28:56.485Z,6.70
2019-04-12T14:31:28.455Z,6.50
2019-04-12T14:34:00.774Z,7.53
2019-04-12T14:36:45.396Z,5.97
2019-04-12T14:39:19.815Z,7.58
2019-04-12T14:41:50.515Z,6.80
2019-04-12T14:44:23.612Z,7.12
2019-04-12T14:46:58.300Z,8.30
2019-04-12T14:49:28.629Z,7.17
2019-04-12T14:51:58.972Z,6.70
2019-04-12T14:54:30.012Z,6.72
2019-04-12T14:57:00.648Z,7.20
2019-04-12T14:59:30.976Z,6.95
2019-04-12T15:02:01.370Z,7.50
2019-04-12T15:04:32.457Z,8.13
2019-04-12T15:07:03.155Z,9.18
2019-04-12T15:09:33.840Z,9.20
2019-04-12T15:12:04.194Z,9.18
2019-04-12T15:14:34.525Z,7.97
2019-04-12T15:17:05.328Z,7.45
2019-04-12T15:19:35.954Z,10.15
2019-04-12T15:22:06.285Z,9.28
2019-04-12T15:24:36.708Z,8.70
2019-04-12T15:27:07.029Z,9.03
2019-04-12T15:29:37.364Z,10.43
2019-04-12T15:32:07.771Z,8.08
2019-04-12T15:34:38.434Z,8.63
2019-04-12T15:37:08.827Z,8.38
2019-04-12T15:39:39.153Z,7.65
2019-04-12T15:42:09.480Z,9.20
2019-04-12T15:44:39.819Z,20.17
2019-04-12T15:47:10.898Z,10.23
2019-04-12T15:49:41.217Z,7.20
2019-04-12T15:52:14.000Z,7.83
2019-04-12T15:54:44.626Z,7.25
2019-04-12T15:57:15.324Z,7.85
2019-04-12T15:59:45.978Z,7.37
2019-04-12T16:02:17.253Z,6.55
2019-04-12T16:04:47.615Z,6.62
2019-04-12T16:07:23.347Z,7.37
2019-04-12T16:09:58.562Z,7.90
2019-04-12T16:12:48.810Z,8.33
2019-04-12T16:16:02.513Z,7.80
2019-04-12T16:18:32.902Z,7.10
2019-04-12T16:21:03.256Z,7.85
2019-04-12T16:23:33.973Z,8.28
2019-04-12T16:26:04.438Z,7.75
2019-04-12T16:28:49.231Z,7.50
2019-04-12T16:31:24.352Z,8.45
2019-04-12T16:33:56.449Z,8.53
2019-04-12T16:36:28.689Z,6.70
2019-04-12T16:38:59.080Z,7.87
2019-04-12T16:41:29.472Z,17.60
2019-04-12T16:43:59.804Z,11.22
2019-04-12T16:46:34.398Z,8.63
2019-04-12T16:49:02.964Z,7.45
2019-04-12T16:51:52.801Z,8.15
2019-04-12T16:54:23.511Z,7.90
2019-04-12T16:56:54.130Z,8.15
2019-04-12T16:59:25.239Z,8.93
2019-04-12T17:02:06.969Z,11.68
2019-04-12T17:04:28.488Z,11.03
2019-04-12T17:06:59.307Z,10.55
2019-04-12T17:09:30.008Z,9.93
2019-04-12T17:12:00.685Z,8.48
2019-04-12T17:14:31.127Z,8.05
2019-04-12T17:17:01.868Z,8.60
2019-04-12T17:19:32.213Z,9.00
2019-04-12T17:22:02.673Z,8.78
2019-04-12T17:24:33.034Z,8.68
2019-04-12T17:27:03.401Z,8.28
2019-04-12T17:29:34.092Z,7.00
2019-04-12T17:32:04.435Z,8.40
2019-04-12T17:34:35.476Z,7.62
2019-04-12T17:37:05.855Z,9.00
2019-04-12T17:39:36.487Z,9.08
2019-04-12T17:42:06.815Z,8.50
2019-04-12T17:44:37.508Z,8.63
2019-04-12T17:47:07.954Z,8.73
2019-04-12T17:49:56.075Z,8.35
2019-04-12T17:52:28.413Z,8.85
2019-04-12T17:55:00.382Z,8.95
2019-04-12T17:57:30.816Z,9.20
2019-04-12T18:00:01.540Z,9.40
2019-04-12T18:02:43.457Z,9.13
2019-04-12T18:05:15.004Z,9.40
2019-04-12T18:07:45.419Z,12.63
2019-04-12T18:10:15.715Z,8.93
2019-04-12T18:12:46.443Z,8.75
2019-04-12T18:15:18.980Z,8.00
2019-04-12T18:17:50.240Z,9.30
2019-04-12T18:20:20.966Z,9.93
2019-04-12T18:22:52.017Z,10.40
2019-04-12T18:25:22.505Z,9.80
2019-04-12T18:27:53.200Z,8.88
2019-04-12T18:30:24.152Z,9.48
2019-04-12T18:32:55.428Z,9.13
2019-04-12T18:35:26.413Z,9.30
2019-04-12T18:37:57.081Z,9.68
2019-04-12T18:40:27.757Z,9.38
2019-04-12T18:42:58.120Z,8.70
2019-04-12T18:45:28.463Z,8.03
2019-04-12T18:47:59.590Z,8.65
2019-04-12T18:50:29.941Z,8.55
2019-04-12T18:53:00.291Z,8.65
2019-04-12T18:55:30.650Z,8.50
2019-04-12T18:58:01.082Z,9.05
2019-04-12T19:00:32.074Z,10.68
2019-04-12T19:03:02.972Z,9.08
2019-04-12T19:05:33.695Z,9.85
2019-04-12T19:08:04.041Z,8.40
2019-04-12T19:10:34.792Z,8.10
2019-04-12T19:13:05.833Z,8.70
2019-04-12T19:15:36.163Z,9.35
2019-04-12T19:18:07.560Z,8.30
2019-04-12T19:20:37.908Z,9.28
2019-04-12T19:23:08.511Z,8.90
2019-04-12T19:25:38.869Z,8.50
2019-04-12T19:28:09.223Z,8.30
2019-04-12T19:30:41.216Z,9.60
2019-04-12T19:33:25.596Z,8.40
2019-04-12T19:36:01.531Z,8.95
2019-04-12T19:38:50.123Z,8.85
2019-04-12T19:41:21.750Z,8.83
2019-04-12T19:43:52.087Z,8.23
2019-04-12T19:46:22.844Z,9.05
2019-04-12T19:48:53.517Z,10.72
2019-04-12T19:51:24.237Z,8.55
2019-04-12T19:53:54.832Z,8.75
2019-04-12T19:56:25.210Z,7.90
2019-04-12T19:58:55.937Z,8.05
2019-04-12T20:01:26.332Z,9.00
2019-04-12T20:03:56.667Z,7.97
2019-04-12T20:06:27.270Z,8.25
2019-04-12T20:08:57.969Z,9.08
2019-04-12T20:11:28.316Z,9.55
2019-04-12T20:13:58.665Z,9.80
2019-04-12T20:16:29.193Z,9.10
2019-04-12T20:18:59.552Z,8.30
2019-04-12T20:21:30.281Z,8.23
2019-04-12T20:24:01.065Z,7.87
2019-04-12T20:26:32.075Z,8.70
2019-04-12T20:29:02.714Z,8.90
2019-04-12T20:31:34.980Z,9.28
2019-04-12T20:34:05.653Z,8.23
2019-04-12T20:36:36.375Z,9.25
2019-04-12T20:39:08.540Z,9.48
2019-04-12T20:41:38.870Z,8.50
2019-04-12T20:44:09.218Z,8.78
2019-04-12T20:46:39.873Z,8.25
2019-04-12T20:49:10.278Z,8.78
2019-04-12T20:51:40.628Z,7.12
2019-04-12T20:54:11.470Z,7.40
2019-04-12T20:56:42.066Z,7.83
2019-04-12T20:59:12.857Z,8.15
2019-04-12T21:01:43.497Z,8.40
2019-04-12T21:04:14.186Z,8.98
2019-04-12T21:06:45.126Z,16.50
2019-04-12T21:09:15.529Z,9.00
2019-04-12T21:11:45.861Z,9.03
2019-04-12T21:14:16.466Z,8.33
2019-04-12T21:16:47.298Z,8.10
2019-04-12T21:19:17.959Z,8.05
2019-04-12T21:21:48.727Z,8.73
2019-04-12T21:24:19.516Z,9.20
2019-04-12T21:26:49.891Z,7.90
2019-04-12T21:29:20.593Z,8.88
2019-04-12T21:31:51.326Z,7.97
2019-04-12T21:34:21.691Z,9.13
2019-04-12T21:36:52.028Z,8.58
2019-04-12T21:39:22.762Z,8.68
2019-04-12T21:41:53.460Z,9.35
2019-04-12T21:44:24.082Z,8.43
2019-04-12T21:46:54.842Z,7.83
2019-04-12T21:49:25.580Z,8.65
2019-04-12T21:51:55.892Z,8.55
2019-04-12T21:54:26.573Z,8.40
2019-04-12T21:56:57.472Z,8.05
2019-04-12T21:59:28.209Z,9.10
2019-04-12T22:01:58.639Z,8.18
2019-04-12T22:04:29.500Z,7.97
2019-04-12T22:06:59.813Z,8.20
2019-04-12T22:09:30.925Z,8.15
2019-04-12T22:12:01.277Z,8.05
2019-04-12T22:14:31.597Z,7.20
2019-04-12T22:17:01.994Z,8.38
2019-04-12T22:19:32.722Z,7.97
2019-04-12T22:22:03.076Z,7.03
2019-04-12T22:24:33.657Z,8.33
2019-04-12T22:27:04.095Z,8.45
2019-04-12T22:29:34.785Z,8.80
2019-04-12T22:32:07.158Z,8.38
2019-04-12T22:34:37.792Z,7.85
2019-04-12T22:37:08.435Z,7.10
2019-04-12T22:39:38.859Z,8.05
2019-04-12T22:42:09.473Z,8.08
2019-04-12T22:44:39.812Z,8.35
2019-04-12T22:47:10.201Z,6.40
2019-04-12T22:49:40.896Z,7.35
2019-04-12T22:52:11.587Z,7.65
2019-04-12T22:54:42.497Z,7.85
2019-04-12T22:57:13.092Z,7.50
2019-04-12T22:59:43.425Z,7.62
2019-04-12T23:02:14.168Z,7.87
2019-04-12T23:04:44.594Z,7.75
2019-04-12T23:07:15.505Z,7.97
2019-04-12T23:09:45.900Z,8.60
2019-04-12T23:12:16.583Z,8.55
2019-04-12T23:14:47.215Z,7.70
2019-04-12T23:17:18.250Z,8.35
2019-04-12T23:19:49.262Z,8.15
2019-04-12T23:22:19.923Z,7.60
2019-04-12T23:24:50.528Z,7.78
2019-04-12T23:27:20.852Z,7.80
2019-04-12T23:29:51.204Z,7.05
2019-04-12T23:32:23.212Z,7.60
2019-04-12T23:35:00.961Z,8.30
2019-04-12T23:37:41.808Z,7.33
2019-04-12T23:40:13.508Z,7.78
2019-04-12T23:42:44.138Z,7.70
2019-04-12T23:45:18.061Z,7.72
2019-04-12T23:47:48.685Z,7.83
2019-04-12T23:50:19.311Z,8.20
2019-04-12T23:52:49.680Z,7.87
2019-04-12T23:55:20.030Z,7.55
2019-04-12T23:57:51.012Z,7.42
